Impacts METAR Board INFO
IDs:

KJFK - New York/Kennedy Int, NY, US

Updated at: 1217 UTC 18 Nov 2017
Potential Impact None Slight Moderate High
Time18/00Z 18/01Z 18/02Z 18/03Z 18/04Z 18/05Z 18/06Z 18/07Z 18/08Z 18/09Z 18/10Z 18/11Z 18/12Z
VIS10 10 10 10 10 10 10 10 10 10 10 10 10
CIG-- -- -- -- -- -- -- -- -- -- -- -- 250
CoverFEWFEWFEWFEWFEWFEWFEWFEWSCTFEWFEWSCTBKN
FltCatVFRVFRVFRVFRVFRVFRVFRVFRVFRVFRVFRVFRVFR
WX--------------------------
WDir31031031028030030030009090000
WSpd11 6 9 6 8 8 7 0 4 4 0 0 0
WGst-- -- -- -- -- -- -- -- -- -- -- -- --
Raw hourly METARs
KJFK 172351Z 31011KT 10SM FEW250 06/M09 A3009 RMK AO2 SLP187 T00611089 10089 20056 51004
KJFK 180051Z 31006KT 10SM FEW250 05/M09 A3010 RMK AO2 SLP191 T00501089
KJFK 180151Z 31009KT 10SM FEW250 04/M09 A3008 RMK AO2 SLP187 T00441089
KJFK 180251Z 28006KT 10SM FEW250 04/M08 A3010 RMK AO2 SLP192 T00391083 53005
KJFK 180351Z 30008KT 10SM FEW150 04/M08 A3009 RMK AO2 SLP188 T00391083
KJFK 180451Z 30008KT 10SM FEW250 04/M08 A3008 RMK AO2 SLP185 T00391083 400890033
KJFK 180551Z 30007KT 10SM FEW250 03/M08 A3006 RMK AO2 SLP179 T00331083 10061 20028 58013
KJFK 180651Z 00000KT 10SM FEW250 02/M08 A3006 RMK AO2 SLP179 T00221083
KJFK 180751Z 09004KT 10SM SCT250 00/M05 A3004 RMK AO2 PRESFR SLP170 T00001050
KJFK 180851Z 09004KT 10SM FEW250 M01/M04 A3002 RMK AO2 SLP163 T10111039 58016
KJFK 180951Z 00000KT 10SM FEW250 M01/M04 A3003 RMK AO2 SLP168 T10061044
KJFK 181051Z 00000KT 10SM FEW150 SCT250 M01/M03 A3001 RMK AO2 SLP162 T10061033
KJFK 181151Z 00000KT 10SM FEW150 BKN250 00/M03 A3000 RMK AO2 SLP159 T00001033 10033 21022 58004